Time;durP1;ratioP1;P1;durP2;ratioP2;P2;SDS_P1;SDS_P2;PMS_P1;PMS_P2;Temp;Humidity;BMP_temperature;BMP_pressure;BME280_temperature;BME280_humidity;BME280_pressure;Samples;Min_cycle;Max_cycle;Signal;HPM_P1;HPM_P2
2023/06/24 00:00:18;;;;;;;33.58;21.67;;;15.90;99.90;;;;;;2039468;29;20027;-74
2023/06/24 00:01:22;;;;;;;31.17;22.15;;;15.90;99.90;;;;;;2034850;28;20024;-74
2023/06/24 00:02:25;;;;;;;30.10;22.27;;;15.90;99.90;;;;;;2044090;28;20043;-73
2023/06/24 00:03:26;;;;;;;38.03;24.20;;;15.90;99.90;;;;;;2030446;29;20180;-74
2023/06/24 00:04:27;;;;;;;37.55;22.75;;;15.90;99.90;;;;;;2038229;29;20032;-73
2023/06/24 00:05:27;;;;;;;40.78;25.65;;;15.90;99.90;;;;;;2031765;29;20525;-73
2023/06/24 00:06:28;;;;;;;43.97;25.27;;;15.90;99.90;;;;;;2027137;29;20774;-73
2023/06/24 00:07:28;;;;;;;36.55;23.08;;;15.90;99.90;;;;;;2046426;28;20039;-73
2023/06/24 00:08:34;;;;;;;31.55;21.75;;;15.90;99.90;;;;;;2032912;28;20027;-73
2023/06/24 00:09:34;;;;;;;35.95;24.10;;;15.90;99.90;;;;;;2039316;28;20463;-73
2023/06/24 00:10:35;;;;;;;42.30;26.25;;;15.90;99.90;;;;;;2040953;29;20255;-73
2023/06/24 00:11:36;;;;;;;38.45;25.65;;;15.80;99.90;;;;;;2045510;28;20806;-73
2023/06/24 00:12:38;;;;;;;35.95;24.25;;;15.90;99.90;;;;;;2045749;28;20081;-74
2023/06/24 00:13:40;;;;;;;44.15;28.02;;;15.80;99.90;;;;;;2030206;29;20032;-74
2023/06/24 00:14:40;;;;;;;44.10;27.50;;;15.80;99.90;;;;;;2037669;28;20496;-73
2023/06/24 00:15:42;;;;;;;44.25;26.92;;;15.80;99.90;;;;;;2020965;29;20048;-73
2023/06/24 00:16:43;;;;;;;41.25;27.20;;;15.80;99.90;;;;;;2025228;29;20634;-74
2023/06/24 00:17:43;;;;;;;44.65;28.88;;;15.80;99.90;;;;;;2036342;29;20039;-74
2023/06/24 00:18:44;;;;;;;52.67;29.88;;;15.80;99.90;;;;;;2041552;29;20043;-74
2023/06/24 00:19:45;;;;;;;62.20;30.88;;;15.80;99.90;;;;;;2035997;29;20038;-74
2023/06/24 00:20:45;;;;;;;42.78;28.17;;;15.70;99.90;;;;;;2038559;29;20059;-74
2023/06/24 00:21:46;;;;;;;39.63;25.73;;;15.70;99.90;;;;;;2038932;29;20467;-74
2023/06/24 00:22:48;;;;;;;39.80;25.65;;;15.70;99.90;;;;;;2048260;28;20543;-74
2023/06/24 00:23:49;;;;;;;47.72;28.00;;;15.70;99.90;;;;;;2048366;28;20146;-74
2023/06/24 00:24:50;;;;;;;44.65;27.63;;;15.80;99.90;;;;;;2043044;28;20038;-74
2023/06/24 00:25:51;;;;;;;35.58;24.38;;;15.80;99.90;;;;;;2035207;29;20030;-74
2023/06/24 00:26:53;;;;;;;44.10;25.40;;;15.80;99.90;;;;;;2035984;29;20043;-73
2023/06/24 00:27:53;;;;;;;40.65;27.27;;;15.80;99.90;;;;;;2036249;28;20080;-73
2023/06/24 00:28:56;;;;;;;35.13;23.83;;;15.80;99.90;;;;;;2040837;29;20094;-74
2023/06/24 00:29:57;;;;;;;35.22;23.35;;;15.80;99.90;;;;;;2043564;28;20142;-74
2023/06/24 00:30:57;;;;;;;37.60;24.52;;;15.80;99.90;;;;;;2045636;28;20027;-74
2023/06/24 00:31:58;;;;;;;45.92;27.42;;;15.80;99.90;;;;;;2037746;28;20031;-74
2023/06/24 00:32:58;;;;;;;41.67;25.23;;;15.80;99.90;;;;;;2039826;29;20039;-73
2023/06/24 00:33:59;;;;;;;38.72;25.80;;;15.80;99.90;;;;;;2036733;29;20056;-74
2023/06/24 00:34:59;;;;;;;34.53;23.40;;;15.80;99.90;;;;;;2038511;29;20551;-74
2023/06/24 00:36:00;;;;;;;33.83;22.95;;;15.80;99.90;;;;;;2034872;29;20042;-73
2023/06/24 00:37:02;;;;;;;31.90;22.83;;;15.80;99.90;;;;;;2039747;29;20489;-74
2023/06/24 00:38:04;;;;;;;34.05;23.10;;;15.90;99.90;;;;;;2046754;28;20029;-74
2023/06/24 00:39:05;;;;;;;35.33;23.70;;;15.80;99.90;;;;;;2048020;28;20027;-74
2023/06/24 00:40:10;;;;;;;46.45;28.50;;;15.80;99.90;;;;;;2037888;28;20032;-73
2023/06/24 00:41:10;;;;;;;42.22;26.92;;;15.80;99.90;;;;;;2045655;28;20043;-74
2023/06/24 00:42:12;;;;;;;46.25;28.17;;;15.80;99.90;;;;;;2045865;28;20035;-75
2023/06/24 00:43:13;;;;;;;40.85;26.38;;;15.80;99.90;;;;;;2047747;28;20113;-74
2023/06/24 00:44:14;;;;;;;36.53;24.05;;;15.80;99.90;;;;;;2046962;28;20038;-74
2023/06/24 00:45:17;;;;;;;46.60;27.88;;;15.80;99.90;;;;;;2035246;29;20028;-75
2023/06/24 00:46:19;;;;;;;55.10;30.27;;;15.80;99.90;;;;;;2046971;28;20273;-74
2023/06/24 00:47:20;;;;;;;48.83;28.88;;;15.80;99.90;;;;;;2048734;28;20030;-75
2023/06/24 00:48:22;;;;;;;42.03;25.48;;;15.80;99.90;;;;;;2043118;28;20104;-75
2023/06/24 00:49:24;;;;;;;40.50;26.65;;;15.80;99.90;;;;;;2037340;28;20542;-76
2023/06/24 00:50:24;;;;;;;48.05;29.45;;;15.80;99.90;;;;;;2038497;29;20043;-74
2023/06/24 00:51:30;;;;;;;43.78;27.33;;;15.80;99.90;;;;;;2037927;28;20083;-74
2023/06/24 00:52:30;;;;;;;38.63;25.88;;;15.80;99.90;;;;;;2040505;28;20106;-73
2023/06/24 00:53:31;;;;;;;52.85;29.25;;;15.70;99.90;;;;;;2040039;29;20039;-74
2023/06/24 00:54:31;;;;;;;41.30;26.90;;;15.70;99.90;;;;;;2034726;28;20126;-75
2023/06/24 00:55:33;;;;;;;40.47;26.08;;;15.80;99.90;;;;;;2030846;29;20028;-75
2023/06/24 00:56:42;;;;;;;42.40;26.25;;;15.80;99.90;;;;;;2042891;29;20450;-74
2023/06/24 00:57:44;;;;;;;41.25;26.50;;;15.80;99.90;;;;;;2042365;28;20535;-75
2023/06/24 00:58:47;;;;;;;46.58;27.92;;;15.80;99.90;;;;;;2039511;29;20038;-74
2023/06/24 00:59:48;;;;;;;44.92;27.80;;;15.80;99.90;;;;;;2037802;28;20043;-75
2023/06/24 01:00:57;;;;;;;43.92;27.27;;;15.80;99.90;;;;;;2037401;28;20028;-74
2023/06/24 01:02:01;;;;;;;54.17;30.23;;;15.80;99.90;;;;;;2030929;29;20028;-74
2023/06/24 01:03:03;;;;;;;39.05;26.10;;;15.90;99.90;;;;;;2029919;29;20032;-74
2023/06/24 01:04:04;;;;;;;46.88;28.02;;;15.90;99.90;;;;;;2039990;29;20028;-74
2023/06/24 01:05:06;;;;;;;68.32;34.17;;;15.80;99.90;;;;;;2039357;29;20051;-75
2023/06/24 01:06:08;;;;;;;55.70;31.95;;;15.80;99.90;;;;;;2034921;29;20317;-74
2023/06/24 01:07:09;;;;;;;57.67;32.30;;;15.90;99.90;;;;;;2038546;28;20130;-74
2023/06/24 01:08:15;;;;;;;53.55;31.52;;;15.90;99.90;;;;;;2035064;28;20030;-74
2023/06/24 01:09:15;;;;;;;45.92;29.02;;;15.90;99.90;;;;;;2039191;29;20030;-75
2023/06/24 01:10:16;;;;;;;61.65;31.80;;;15.90;99.90;;;;;;2039710;28;20041;-76
2023/06/24 01:11:17;;;;;;;49.60;29.95;;;15.90;99.90;;;;;;2028738;29;20059;-75
2023/06/24 01:12:18;;;;;;;74.40;34.45;;;15.90;99.90;;;;;;2029576;29;20407;-76
2023/06/24 01:13:19;;;;;;;52.95;31.77;;;15.80;99.90;;;;;;2029471;29;20183;-75
2023/06/24 01:14:20;;;;;;;51.15;28.38;;;15.90;99.90;;;;;;2032129;29;20032;-75
2023/06/24 01:15:21;;;;;;;45.92;27.67;;;15.90;99.90;;;;;;2038240;29;20024;-75
2023/06/24 01:16:48;;;;;;;43.88;26.70;;;15.90;99.90;;;;;;2035105;29;20153;-75
2023/06/24 01:18:09;;;;;;;43.97;27.08;;;15.90;99.90;;;;;;2032169;29;20024;-75
2023/06/24 01:19:37;;;;;;;45.65;27.13;;;15.90;99.90;;;;;;2038167;28;20038;-74
2023/06/24 01:20:56;;;;;;;52.15;29.77;;;15.90;99.90;;;;;;2043424;28;20512;-75
2023/06/24 01:22:21;;;;;;;44.55;26.70;;;15.90;99.90;;;;;;2035621;29;20032;-74
2023/06/24 01:24:11;;;;;;;48.67;26.90;;;16.00;99.90;;;;;;2036789;29;20031;-74
2023/06/24 01:25:24;;;;;;;48.92;26.17;;;16.00;99.90;;;;;;2009165;29;20051;-74
2023/06/24 01:26:52;;;;;;;65.30;33.90;;;16.00;99.90;;;;;;2016903;29;20035;-75
2023/06/24 01:28:14;;;;;;;48.70;28.52;;;16.00;99.90;;;;;;2031628;29;20091;-74
2023/06/24 01:29:44;;;;;;;49.80;28.88;;;16.00;99.90;;;;;;2031785;29;20027;-74
2023/06/24 01:31:26;;;;;;;44.50;28.45;;;16.00;99.90;;;;;;2037568;29;20050;-75
2023/06/24 01:32:34;;;;;;;52.30;28.40;;;16.00;99.90;;;;;;2010404;29;20167;-74
2023/06/24 01:33:47;;;;;;;43.67;26.85;;;16.00;99.90;;;;;;2010489;29;20127;-74
2023/06/24 01:35:00;;;;;;;46.15;27.55;;;16.00;99.90;;;;;;2006792;29;20041;-74
2023/06/24 01:36:02;;;;;;;45.80;27.15;;;16.00;99.90;;;;;;2010239;29;20027;-74
2023/06/24 01:37:26;;;;;;;51.45;29.70;;;16.00;99.90;;;;;;2002185;29;20036;-75
2023/06/24 01:38:35;;;;;;;53.33;29.77;;;16.00;99.90;;;;;;2033918;28;20529;-75
2023/06/24 01:39:43;;;;;;;54.78;31.20;;;16.00;99.90;;;;;;2042873;28;20094;-75
2023/06/24 01:40:45;;;;;;;60.55;30.98;;;16.00;99.90;;;;;;2035785;29;20026;-75
2023/06/24 01:41:58;;;;;;;60.45;33.70;;;16.10;99.90;;;;;;2029748;29;20143;-75
2023/06/24 01:43:01;;;;;;;70.57;36.38;;;16.00;99.90;;;;;;2037292;28;20039;-75
2023/06/24 01:44:03;;;;;;;78.10;39.53;;;16.00;99.90;;;;;;2049864;28;20510;-73
2023/06/24 01:45:16;;;;;;;76.47;39.22;;;16.10;99.90;;;;;;2038219;28;20047;-73
2023/06/24 01:46:22;;;;;;;66.97;36.88;;;16.00;99.90;;;;;;2038215;28;20502;-73
2023/06/24 01:47:26;;;;;;;55.45;32.28;;;16.00;99.90;;;;;;2038313;28;20115;-73
2023/06/24 01:48:34;;;;;;;58.55;34.40;;;16.10;99.90;;;;;;2045444;28;20122;-74
2023/06/24 01:49:40;;;;;;;64.22;35.30;;;16.10;99.90;;;;;;2029497;29;20104;-74
2023/06/24 01:50:47;;;;;;;55.95;29.77;;;16.10;99.90;;;;;;2023058;29;20044;-74
2023/06/24 01:51:49;;;;;;;56.80;30.63;;;16.10;99.90;;;;;;2039573;29;20047;-73
2023/06/24 01:52:52;;;;;;;60.65;33.65;;;16.10;99.90;;;;;;2032518;29;20026;-74
2023/06/24 01:54:04;;;;;;;51.00;31.27;;;16.10;99.90;;;;;;2038749;29;20035;-74
2023/06/24 01:55:09;;;;;;;55.47;30.83;;;16.10;99.90;;;;;;2034592;29;20040;-74
2023/06/24 01:56:14;;;;;;;54.70;30.50;;;16.10;99.90;;;;;;2036040;29;20079;-73
2023/06/24 01:57:17;;;;;;;73.18;38.13;;;16.10;99.90;;;;;;2035516;29;20059;-74
2023/06/24 01:58:19;;;;;;;60.13;34.72;;;16.10;99.90;;;;;;2034386;28;20569;-74
2023/06/24 01:59:21;;;;;;;74.07;37.47;;;16.10;99.90;;;;;;2038740;29;20031;-74
2023/06/24 02:00:23;;;;;;;61.08;35.50;;;16.10;99.90;;;;;;2031332;29;20070;-73
2023/06/24 02:01:24;;;;;;;91.13;41.88;;;16.10;99.90;;;;;;2039465;29;20082;-73
2023/06/24 02:02:26;;;;;;;80.20;40.63;;;16.10;99.90;;;;;;2037283;29;20034;-74
2023/06/24 02:03:28;;;;;;;78.45;39.92;;;16.10;99.90;;;;;;2045169;28;20398;-74
2023/06/24 02:04:31;;;;;;;61.17;34.33;;;16.10;99.90;;;;;;2043972;28;20056;-74
2023/06/24 02:05:32;;;;;;;88.50;41.75;;;16.00;99.90;;;;;;2034288;29;20047;-74
2023/06/24 02:06:34;;;;;;;85.18;41.53;;;16.10;99.90;;;;;;2048074;28;20066;-74
2023/06/24 02:07:36;;;;;;;68.63;35.92;;;16.10;99.90;;;;;;2045772;28;20039;-74
2023/06/24 02:08:39;;;;;;;67.28;34.97;;;16.00;99.90;;;;;;2035255;29;20039;-74
2023/06/24 02:09:43;;;;;;;57.95;32.25;;;16.10;99.90;;;;;;2038650;29;20216;-74
2023/06/24 02:10:45;;;;;;;68.80;37.33;;;16.10;99.90;;;;;;2039058;29;20118;-76
2023/06/24 02:11:48;;;;;;;76.05;40.00;;;16.10;99.90;;;;;;2039400;29;20027;-74
2023/06/24 02:12:53;;;;;;;78.53;39.90;;;16.10;99.90;;;;;;2037723;28;20038;-74
2023/06/24 02:13:55;;;;;;;69.97;37.40;;;16.10;99.90;;;;;;2045040;28;20505;-74
2023/06/24 02:14:57;;;;;;;71.97;39.35;;;16.10;99.90;;;;;;2037678;29;20101;-73
2023/06/24 02:16:00;;;;;;;62.33;35.53;;;16.10;99.90;;;;;;2029356;29;20988;-73
2023/06/24 02:17:04;;;;;;;67.85;36.75;;;16.10;99.90;;;;;;2029613;29;20134;-74
2023/06/24 02:18:10;;;;;;;63.80;35.92;;;16.10;99.90;;;;;;2037248;29;20155;-73
2023/06/24 02:19:11;;;;;;;65.15;35.17;;;16.10;99.90;;;;;;2037895;28;20023;-73
2023/06/24 02:20:14;;;;;;;67.75;36.55;;;16.10;99.90;;;;;;2045158;28;20554;-74
2023/06/24 02:21:19;;;;;;;69.53;37.95;;;16.10;99.90;;;;;;2045007;28;20126;-74
2023/06/24 02:22:22;;;;;;;66.22;35.50;;;16.00;99.90;;;;;;2040246;29;20024;-74
2023/06/24 02:23:23;;;;;;;79.57;39.80;;;16.10;99.90;;;;;;2038629;29;20395;-74
2023/06/24 02:24:24;;;;;;;69.05;37.53;;;16.10;99.90;;;;;;2038270;29;20028;-74
2023/06/24 02:25:26;;;;;;;99.53;44.80;;;16.10;99.90;;;;;;2039001;29;20817;-74
2023/06/24 02:26:27;;;;;;;89.47;42.83;;;16.10;99.90;;;;;;2038184;28;20078;-74
2023/06/24 02:27:29;;;;;;;80.18;40.75;;;16.10;99.90;;;;;;2036995;29;20031;-74
2023/06/24 02:28:30;;;;;;;85.13;41.13;;;16.10;99.90;;;;;;2037166;29;20518;-74
2023/06/24 02:29:33;;;;;;;69.13;37.97;;;16.10;99.90;;;;;;2045294;28;20035;-74
2023/06/24 02:30:35;;;;;;;68.15;36.58;;;16.20;99.90;;;;;;2044925;28;20047;-75
2023/06/24 02:31:36;;;;;;;76.97;40.22;;;16.10;99.90;;;;;;2041748;28;20066;-74
2023/06/24 02:32:38;;;;;;;70.25;36.72;;;16.20;99.90;;;;;;2048191;28;20031;-73
2023/06/24 02:33:39;;;;;;;62.17;33.95;;;16.20;99.90;;;;;;2042143;28;20031;-75
2023/06/24 02:34:40;;;;;;;80.85;40.30;;;16.20;99.90;;;;;;2039169;29;20038;-74
2023/06/24 02:35:41;;;;;;;76.63;40.10;;;16.20;99.90;;;;;;2038087;29;20027;-73
2023/06/24 02:36:42;;;;;;;69.10;38.10;;;16.20;99.90;;;;;;2030353;29;20032;-73
2023/06/24 02:37:43;;;;;;;105.60;45.53;;;16.20;99.90;;;;;;2038644;29;20218;-74
2023/06/24 02:38:44;;;;;;;94.28;45.78;;;16.20;99.90;;;;;;2037115;29;20050;-74
2023/06/24 02:39:45;;;;;;;88.63;45.47;;;16.20;99.90;;;;;;2038366;29;20084;-75
2023/06/24 02:40:45;;;;;;;95.15;45.30;;;16.10;99.90;;;;;;2037361;28;20067;-74
2023/06/24 02:41:47;;;;;;;95.80;45.17;;;16.10;99.90;;;;;;2043898;28;20141;-74
2023/06/24 02:42:48;;;;;;;89.03;45.00;;;16.10;99.90;;;;;;2048762;28;20394;-74
2023/06/24 02:43:48;;;;;;;93.25;45.05;;;16.10;99.90;;;;;;2047802;28;20023;-74
2023/06/24 02:44:49;;;;;;;70.68;39.85;;;16.10;99.90;;;;;;2044164;28;20565;-73
2023/06/24 02:45:51;;;;;;;88.80;43.05;;;16.20;99.90;;;;;;2045720;28;20051;-74
2023/06/24 02:46:54;;;;;;;80.95;42.78;;;16.10;99.90;;;;;;2047485;28;20109;-74
2023/06/24 02:47:55;;;;;;;82.70;41.22;;;16.10;99.90;;;;;;2041278;29;20043;-74
2023/06/24 02:48:57;;;;;;;78.38;40.38;;;16.10;99.90;;;;;;2036523;29;20027;-75
2023/06/24 02:49:59;;;;;;;91.55;44.55;;;16.10;99.90;;;;;;2046517;28;20039;-74
2023/06/24 02:51:00;;;;;;;104.03;47.03;;;16.20;99.90;;;;;;2046307;28;20027;-73
2023/06/24 02:52:01;;;;;;;87.45;45.25;;;16.10;99.90;;;;;;2041435;28;20116;-74
2023/06/24 02:53:03;;;;;;;95.65;46.28;;;16.10;99.90;;;;;;2045266;28;20023;-74
2023/06/24 02:54:09;;;;;;;95.95;46.42;;;16.10;99.90;;;;;;2035695;28;20023;-75
2023/06/24 02:55:30;;;;;;;91.90;45.72;;;16.10;99.90;;;;;;2035593;29;20046;-74
2023/06/24 02:56:41;;;;;;;107.53;47.80;;;16.10;99.90;;;;;;2046431;28;20442;-75
2023/06/24 02:57:42;;;;;;;80.68;42.20;;;16.10;99.90;;;;;;2044453;28;20102;-75
2023/06/24 02:58:46;;;;;;;74.55;39.53;;;16.10;99.90;;;;;;2039891;29;20436;-74
2023/06/24 02:59:55;;;;;;;88.38;46.00;;;16.10;99.90;;;;;;2043342;28;20039;-74
2023/06/24 03:01:02;;;;;;;107.75;48.53;;;16.10;99.90;;;;;;2042748;28;20039;-75
2023/06/24 03:02:08;;;;;;;88.20;45.08;;;16.10;99.90;;;;;;2035375;29;20163;-74
2023/06/24 03:03:09;;;;;;;118.88;50.65;;;16.10;99.90;;;;;;2031355;29;20028;-74
2023/06/24 03:04:15;;;;;;;107.15;49.47;;;16.10;99.90;;;;;;2032157;29;20550;-74
2023/06/24 03:05:16;;;;;;;115.22;49.80;;;16.10;99.90;;;;;;2035551;29;20163;-74
2023/06/24 03:06:18;;;;;;;95.68;46.67;;;16.10;99.90;;;;;;2048564;28;20137;-74
2023/06/24 03:07:20;;;;;;;87.53;41.40;;;16.20;99.90;;;;;;2043105;28;20077;-73
2023/06/24 03:08:21;;;;;;;84.53;41.65;;;16.20;99.90;;;;;;2034542;29;20069;-73
2023/06/24 03:09:26;;;;;;;82.28;42.08;;;16.20;99.90;;;;;;2038154;28;20055;-74
2023/06/24 03:10:27;;;;;;;65.72;37.58;;;16.20;99.90;;;;;;2031941;29;20044;-74
2023/06/24 03:11:28;;;;;;;64.88;37.65;;;16.20;99.90;;;;;;2023600;29;20128;-74
2023/06/24 03:12:32;;;;;;;91.45;43.70;;;16.20;99.90;;;;;;2033040;29;20028;-75
2023/06/24 03:13:33;;;;;;;99.50;46.50;;;16.20;99.90;;;;;;2035825;29;20510;-73
2023/06/24 03:14:48;;;;;;;90.78;46.15;;;16.10;99.90;;;;;;2036332;29;20036;-73
2023/06/24 03:15:52;;;;;;;80.40;40.35;;;16.10;99.90;;;;;;2039289;29;20822;-73
2023/06/24 03:16:53;;;;;;;76.38;41.03;;;16.10;99.90;;;;;;2031834;29;20027;-73
2023/06/24 03:17:55;;;;;;;99.72;46.72;;;16.10;99.90;;;;;;2040961;29;20778;-74
2023/06/24 03:18:56;;;;;;;102.90;47.25;;;16.10;99.90;;;;;;2038665;28;20024;-74
2023/06/24 03:19:56;;;;;;;105.35;47.92;;;16.00;99.90;;;;;;2046523;28;20030;-75
2023/06/24 03:20:57;;;;;;;98.45;47.00;;;16.00;99.90;;;;;;2046570;28;20502;-74
2023/06/24 03:22:03;;;;;;;77.72;39.47;;;16.00;99.90;;;;;;2038282;29;20024;-74
2023/06/24 03:23:07;;;;;;;79.10;39.90;;;16.00;99.90;;;;;;2027850;29;20035;-74
2023/06/24 03:24:08;;;;;;;82.32;41.60;;;16.00;99.90;;;;;;2040953;29;20069;-74
2023/06/24 03:25:10;;;;;;;89.22;46.22;;;16.00;99.90;;;;;;2029297;29;20567;-75
2023/06/24 03:26:11;;;;;;;105.35;48.13;;;16.00;99.90;;;;;;2031555;29;20036;-74
2023/06/24 03:27:12;;;;;;;80.93;43.55;;;15.90;99.90;;;;;;2031538;29;20031;-73
2023/06/24 03:28:15;;;;;;;72.68;41.33;;;15.90;99.90;;;;;;2031711;29;20083;-73
2023/06/24 03:29:24;;;;;;;80.80;42.05;;;15.90;99.90;;;;;;2038852;29;20560;-74
2023/06/24 03:30:34;;;;;;;87.07;43.95;;;15.90;99.90;;;;;;2039238;29;20301;-73
2023/06/24 03:31:35;;;;;;;95.13;46.35;;;15.90;99.90;;;;;;2039947;28;20039;-73
2023/06/24 03:32:35;;;;;;;92.72;45.33;;;15.90;99.90;;;;;;2040817;29;20118;-72
2023/06/24 03:33:36;;;;;;;106.22;49.15;;;15.80;99.90;;;;;;2037925;28;20071;-72
2023/06/24 03:34:37;;;;;;;93.32;46.45;;;15.80;99.90;;;;;;2046076;28;20366;-73
2023/06/24 03:35:37;;;;;;;96.18;46.72;;;15.80;99.90;;;;;;2046015;28;20163;-73
2023/06/24 03:36:42;;;;;;;91.20;45.15;;;15.80;99.90;;;;;;2048009;28;20462;-73
2023/06/24 03:37:43;;;;;;;84.57;43.60;;;15.80;99.90;;;;;;2035662;28;20031;-72
2023/06/24 03:38:44;;;;;;;105.10;47.38;;;15.80;99.90;;;;;;2027852;29;20144;-75
2023/06/24 03:39:44;;;;;;;90.32;45.67;;;15.80;99.90;;;;;;2031436;29;20405;-73
2023/06/24 03:40:45;;;;;;;104.85;48.10;;;15.80;99.90;;;;;;2039431;29;20106;-73
2023/06/24 03:41:46;;;;;;;96.35;47.20;;;15.80;99.90;;;;;;2033006;29;20043;-73
2023/06/24 03:42:48;;;;;;;83.90;44.35;;;15.80;99.90;;;;;;2040067;28;20031;-73
2023/06/24 03:43:49;;;;;;;74.13;40.25;;;15.70;99.90;;;;;;2046168;28;20418;-74
2023/06/24 03:44:50;;;;;;;78.53;41.38;;;15.70;99.90;;;;;;2045787;28;20070;-73
2023/06/24 03:45:51;;;;;;;85.53;44.55;;;15.70;99.90;;;;;;2048457;28;20138;-73
2023/06/24 03:46:52;;;;;;;88.57;44.28;;;15.70;99.90;;;;;;2046956;28;20058;-73
2023/06/24 03:47:52;;;;;;;76.88;42.17;;;15.70;99.90;;;;;;2042898;28;20034;-73
2023/06/24 03:48:53;;;;;;;62.28;37.53;;;15.70;99.90;;;;;;2039655;28;20031;-73
2023/06/24 03:49:54;;;;;;;88.20;44.00;;;15.70;99.90;;;;;;2038682;28;20017;-73
2023/06/24 03:50:55;;;;;;;81.45;42.83;;;15.70;99.90;;;;;;2040608;29;20035;-75
2023/06/24 03:51:56;;;;;;;88.13;44.63;;;15.70;99.90;;;;;;2037989;28;20031;-73
2023/06/24 03:52:56;;;;;;;72.93;41.42;;;15.70;99.90;;;;;;2038016;29;20114;-74
2023/06/24 03:53:57;;;;;;;86.55;44.47;;;15.70;99.90;;;;;;2037943;29;20024;-73
2023/06/24 03:54:57;;;;;;;84.40;43.47;;;15.70;99.90;;;;;;2048019;28;20293;-74
2023/06/24 03:55:59;;;;;;;92.40;45.75;;;15.70;99.90;;;;;;2042334;29;20092;-74
2023/06/24 03:57:01;;;;;;;77.80;42.63;;;15.70;99.90;;;;;;2048122;28;20071;-73
2023/06/24 03:58:01;;;;;;;88.40;43.78;;;15.70;99.90;;;;;;2039316;29;20469;-74
2023/06/24 03:59:02;;;;;;;86.57;44.22;;;15.70;99.90;;;;;;2028785;29;20052;-73
2023/06/24 04:00:14;;;;;;;81.95;43.50;;;15.70;99.90;;;;;;2037630;29;20062;-74
2023/06/24 04:01:17;;;;;;;79.18;41.85;;;15.70;99.90;;;;;;2035930;29;20485;-74
2023/06/24 04:02:18;;;;;;;76.00;42.65;;;15.70;99.90;;;;;;2038469;28;20106;-73
2023/06/24 04:03:18;;;;;;;80.28;42.92;;;15.70;99.90;;;;;;2038660;29;20195;-73
2023/06/24 04:04:19;;;;;;;71.55;41.15;;;15.60;99.90;;;;;;2037876;29;20514;-73
2023/06/24 04:05:21;;;;;;;84.82;43.67;;;15.70;99.90;;;;;;2041105;29;20140;-73
2023/06/24 04:06:23;;;;;;;77.05;41.10;;;15.80;99.90;;;;;;2047628;28;20046;-73
2023/06/24 04:07:29;;;;;;;61.75;38.53;;;15.80;99.90;;;;;;2038994;29;20035;-73
2023/06/24 04:08:31;;;;;;;62.05;38.58;;;15.90;99.90;;;;;;2032426;29;20035;-73
2023/06/24 04:09:34;;;;;;;57.45;36.17;;;16.10;99.90;;;;;;2027903;29;20036;-74
2023/06/24 04:10:34;;;;;;;56.88;33.40;;;16.10;99.90;;;;;;2039190;29;20126;-73
2023/06/24 04:11:35;;;;;;;53.22;33.78;;;16.20;99.90;;;;;;2040883;29;20532;-73
2023/06/24 04:12:36;;;;;;;46.35;31.63;;;16.20;99.90;;;;;;2046083;28;20461;-73
2023/06/24 04:13:36;;;;;;;44.45;30.92;;;16.30;99.90;;;;;;2046056;28;20544;-74
2023/06/24 04:14:38;;;;;;;42.42;30.63;;;16.50;99.90;;;;;;2046434;28;20035;-74
2023/06/24 04:15:39;;;;;;;42.55;29.02;;;16.60;99.90;;;;;;2046279;28;20233;-74
2023/06/24 04:16:40;;;;;;;43.28;28.23;;;16.60;99.90;;;;;;2037934;29;20124;-75
2023/06/24 04:17:40;;;;;;;37.30;26.85;;;16.60;99.90;;;;;;2032600;29;20301;-74
2023/06/24 04:18:41;;;;;;;36.55;25.90;;;16.70;99.90;;;;;;2038943;29;20035;-73
2023/06/24 04:19:42;;;;;;;35.80;25.63;;;16.90;99.90;;;;;;2035489;29;20118;-74
2023/06/24 04:20:43;;;;;;;32.33;24.65;;;17.00;99.90;;;;;;2039138;29;20035;-74
2023/06/24 04:21:44;;;;;;;37.28;24.27;;;17.20;99.90;;;;;;2036566;29;20024;-74
2023/06/24 04:22:46;;;;;;;38.92;23.60;;;17.30;99.90;;;;;;2037283;29;20490;-74
2023/06/24 04:23:47;;;;;;;35.78;22.42;;;17.30;99.90;;;;;;2037809;29;20040;-74
2023/06/24 04:24:47;;;;;;;36.72;22.33;;;17.50;99.90;;;;;;2037429;29;20046;-75
2023/06/24 04:25:48;;;;;;;29.73;21.00;;;17.40;99.90;;;;;;2040856;28;20055;-74
2023/06/24 04:26:48;;;;;;;25.73;19.48;;;17.40;99.90;;;;;;2034705;29;20079;-74
2023/06/24 04:27:49;;;;;;;29.08;20.67;;;17.50;99.90;;;;;;2038619;29;20244;-75
2023/06/24 04:28:49;;;;;;;32.08;20.67;;;17.70;99.90;;;;;;2040908;29;20453;-74
2023/06/24 04:29:51;;;;;;;26.17;18.98;;;17.70;99.90;;;;;;2040013;28;20030;-74
2023/06/24 04:30:51;;;;;;;30.27;20.08;;;17.80;99.90;;;;;;2046219;28;20042;-75
2023/06/24 04:31:52;;;;;;;31.55;19.65;;;17.80;99.90;;;;;;2038238;28;20155;-74
2023/06/24 04:32:53;;;;;;;32.10;18.60;;;17.80;99.90;;;;;;2029700;29;20042;-75
2023/06/24 04:33:54;;;;;;;31.50;18.70;;;17.80;99.90;;;;;;2029796;29;20024;-74
2023/06/24 04:34:54;;;;;;;27.13;19.40;;;17.70;99.90;;;;;;2040373;29;20494;-74
2023/06/24 04:35:55;;;;;;;25.90;19.23;;;17.70;99.90;;;;;;2034753;29;20827;-74
2023/06/24 04:36:56;;;;;;;29.42;19.17;;;17.60;99.90;;;;;;2029569;29;20039;-74
2023/06/24 04:37:57;;;;;;;21.88;17.70;;;17.60;99.90;;;;;;2036645;28;20031;-74
2023/06/24 04:38:58;;;;;;;26.75;18.10;;;17.70;99.90;;;;;;2040398;29;20039;-74
2023/06/24 04:39:59;;;;;;;29.15;19.13;;;17.60;99.90;;;;;;2037690;28;20166;-74
2023/06/24 04:40:59;;;;;;;27.08;18.58;;;17.40;99.90;;;;;;2045748;28;20038;-75
2023/06/24 04:42:00;;;;;;;22.30;16.80;;;17.30;99.90;;;;;;2037675;29;20044;-73
2023/06/24 04:43:00;;;;;;;23.42;19.27;;;17.30;99.90;;;;;;2040528;29;20031;-74
2023/06/24 04:44:01;;;;;;;29.48;18.95;;;17.30;99.90;;;;;;2035179;29;20048;-74
2023/06/24 04:45:05;;;;;;;27.73;19.60;;;17.20;99.90;;;;;;2039137;28;20046;-73
2023/06/24 04:46:05;;;;;;;25.55;19.63;;;17.20;99.90;;;;;;2039068;29;20023;-74
2023/06/24 04:47:06;;;;;;;31.98;20.45;;;17.10;99.90;;;;;;2036116;29;20562;-73
2023/06/24 04:48:06;;;;;;;27.50;18.88;;;17.00;99.90;;;;;;2044889;28;20053;-72
2023/06/24 04:49:07;;;;;;;26.95;17.40;;;17.00;99.90;;;;;;2045556;28;20027;-74
2023/06/24 04:50:10;;;;;;;31.00;19.40;;;17.00;99.90;;;;;;2045787;28;20570;-73
2023/06/24 04:51:11;;;;;;;29.75;21.30;;;17.00;99.90;;;;;;2047838;28;20058;-74
2023/06/24 04:52:12;;;;;;;28.67;21.67;;;17.00;99.90;;;;;;2035090;29;20063;-74
2023/06/24 04:53:13;;;;;;;35.20;22.25;;;16.90;99.90;;;;;;2038909;29;20029;-74
2023/06/24 04:54:13;;;;;;;28.55;21.70;;;16.80;99.90;;;;;;2038783;29;20031;-75
2023/06/24 04:55:14;;;;;;;34.72;23.05;;;16.70;99.90;;;;;;2040393;29;20058;-74
2023/06/24 04:56:14;;;;;;;34.25;23.45;;;16.60;99.90;;;;;;2047000;28;20093;-75
2023/06/24 04:57:44;;;;;;;37.67;22.67;;;16.60;99.90;;;;;;2045498;28;20031;-74
2023/06/24 04:58:45;;;;;;;32.20;22.17;;;16.60;99.90;;;;;;2023605;29;20032;-74
2023/06/24 04:59:45;;;;;;;29.08;21.05;;;16.60;99.90;;;;;;2045937;28;20019;-74
2023/06/24 05:00:46;;;;;;;30.58;21.40;;;16.70;99.90;;;;;;2037325;28;20039;-74
2023/06/24 05:01:46;;;;;;;33.78;21.95;;;16.70;99.90;;;;;;2029727;29;20043;-74
2023/06/24 05:02:47;;;;;;;35.67;21.30;;;16.80;99.90;;;;;;2031065;29;20040;-74
2023/06/24 05:03:48;;;;;;;27.70;20.95;;;16.80;99.90;;;;;;2032460;29;20043;-74
2023/06/24 05:04:49;;;;;;;26.98;20.67;;;16.80;99.90;;;;;;2034811;29;20126;-74
2023/06/24 05:05:50;;;;;;;31.13;20.30;;;16.90;99.90;;;;;;2040973;29;20486;-73
2023/06/24 05:06:50;;;;;;;31.42;21.10;;;16.90;99.90;;;;;;2040540;29;20323;-73
2023/06/24 05:07:51;;;;;;;33.78;20.55;;;16.90;99.90;;;;;;2037185;28;20481;-73
2023/06/24 05:08:51;;;;;;;29.73;20.55;;;17.00;99.90;;;;;;2035826;28;20561;-74
2023/06/24 05:09:52;;;;;;;31.42;20.70;;;17.00;99.90;;;;;;2037828;28;20039;-73
2023/06/24 05:10:53;;;;;;;27.40;19.65;;;17.10;99.90;;;;;;2044935;28;20549;-74
2023/06/24 05:11:53;;;;;;;30.55;20.75;;;17.20;99.90;;;;;;2045472;28;20057;-73
2023/06/24 05:12:54;;;;;;;33.08;21.45;;;17.30;99.90;;;;;;2041108;29;20107;-74
2023/06/24 05:13:55;;;;;;;33.20;22.52;;;17.30;99.90;;;;;;2039547;29;20037;-74
2023/06/24 05:14:56;;;;;;;29.50;23.13;;;17.30;99.90;;;;;;2037269;29;20051;-74
2023/06/24 05:15:57;;;;;;;33.65;22.95;;;17.30;99.90;;;;;;2040018;29;20035;-74
2023/06/24 05:16:57;;;;;;;31.65;23.48;;;17.30;99.90;;;;;;2037439;29;20130;-74
2023/06/24 05:17:58;;;;;;;33.70;25.77;;;17.30;99.90;;;;;;2038553;28;20567;-74
2023/06/24 05:18:58;;;;;;;35.63;25.95;;;17.30;99.90;;;;;;2045679;28;20114;-74
2023/06/24 05:19:59;;;;;;;40.28;26.13;;;17.30;99.90;;;;;;2045627;28;20047;-75